Portada
METAR-TAF:

METAR-TAF

Aeroports :

Spirit of St Louis Airport

Saint Louis, Missouri, Estats Units d'Amèrica

latitud: 38-39-26N, longitud: 090-39-21W, altitud: 141 m

Observació

L'informe es va fer fa 16 minuts, a les 22:54 UTC
Vent 12 kt del Nord/Nord-Oest
Temperatura 24°C
Humitat 34%
Pressió 1018 hPa
Visibilitat: 16.1 km
Cel clar

METAR: KSUS 292254Z 33012KT 10SM CLR 24/07 A3006 RMK AO2 SLP173 T02440072

Hora: 18:10 (23:10 UTC)

Pronòstic

L'informe es va fer fa 5 hores i 50 minuts, a les 17:20 UTC
Pronòstic vàlid del 29 a les 18 UTC al 30 a les 18 UTC
Vent 13 kt del Nord-Oest amb ràfegues de 23 kt
Visibilitat: 10 km
Escasses núvols a una alçada de 3500 ft
A partir de les 30 a les 0100 UTC
Vent 4 kt amb direcció variable
Visibilitat: 10 km
Cel clar
A partir de les 30 a les 1600 UTC
Vent 7 kt del Nord
Visibilitat: 10 km
Núvols disperses a una alçada de 12000 ft

TAF: KSUS 291720Z 2918/3018 31013G23KT P6SM FEW035 FM300100 VRB04KT P6SM SKC FM301600 35007KT P6SM SCT120

Observacions i pronòstics meteorològics de més de 4000 aeroports (METAR i TAF).

Les estacions disponibles són els punts grocs i vermells al mapa.

Posi el ratolí al punt desitjat per veure el nom de l'estació.

Feu clic per veure les observacions i els pronòstics meteorològics.

Per canviar el mapa: feu clic els botons verds amb una creu de color negre per apropar; al botó verd amb un guió per allunyar la imatge; o en les fletxes verdes per a mapes adjacents.


METAR-TAF: